createdAt,value
2022-12-27T00:01:14.310Z,99998.78
2022-12-27T00:03:41.693Z,99993.56
2022-12-27T00:06:20.961Z,99994.50
2022-12-27T00:08:47.703Z,100006.59
2022-12-27T00:11:17.217Z,99999.28
2022-12-27T00:13:43.738Z,100000.06
2022-12-27T00:16:14.383Z,100002.00
2022-12-27T00:18:41.581Z,100010.56
2022-12-27T00:21:10.168Z,100007.16
2022-12-27T00:23:40.061Z,99998.31
2022-12-27T00:26:13.038Z,100003.41
2022-12-27T00:28:39.760Z,100003.09
2022-12-27T00:31:06.897Z,100005.19
2022-12-27T00:33:34.790Z,100003.41
2022-12-27T00:36:03.213Z,100011.44
2022-12-27T00:38:29.668Z,100009.81
2022-12-27T00:40:56.094Z,100007.22
2022-12-27T00:43:22.522Z,100012.59
2022-12-27T00:45:49.214Z,100010.88
2022-12-27T00:48:15.717Z,100000.41
2022-12-27T00:50:43.684Z,100010.03
2022-12-27T00:53:11.474Z,100025.44
2022-12-27T00:55:38.602Z,100028.66
2022-12-27T00:58:05.053Z,100030.94
2022-12-27T01:00:31.448Z,100034.09
2022-12-27T01:02:57.853Z,100032.97
2022-12-27T01:05:24.244Z,100030.84
2022-12-27T01:07:50.632Z,100031.09
2022-12-27T01:10:17.350Z,100030.69
2022-12-27T01:12:43.730Z,100020.56
2022-12-27T01:15:10.884Z,100027.47
2022-12-27T01:17:37.299Z,100030.13
2022-12-27T01:20:04.822Z,100039.72
2022-12-27T01:22:31.204Z,100033.25
2022-12-27T01:24:57.619Z,100035.06
2022-12-27T01:27:24.041Z,100034.97
2022-12-27T01:29:50.413Z,100031.38
2022-12-27T01:32:16.785Z,100031.16
2022-12-27T01:34:43.182Z,100031.22
2022-12-27T01:37:09.560Z,100037.00
2022-12-27T01:39:35.956Z,100034.50
2022-12-27T01:42:20.878Z,100037.16
2022-12-27T01:44:54.757Z,100046.75
2022-12-27T01:47:52.982Z,100043.50
2022-12-27T01:50:24.985Z,100045.88
2022-12-27T01:53:06.950Z,100037.72
2022-12-27T01:55:36.100Z,100039.72
2022-12-27T01:58:08.688Z,100043.22
2022-12-27T02:00:35.551Z,100036.31
2022-12-27T02:03:05.975Z,100051.50
2022-12-27T02:05:34.035Z,100058.91
2022-12-27T02:08:06.229Z,100058.91
2022-12-27T02:10:33.516Z,100055.16
2022-12-27T02:13:00.888Z,100053.00
2022-12-27T02:15:27.497Z,100047.84
2022-12-27T02:17:54.217Z,100047.59
2022-12-27T02:20:23.123Z,100044.97
2022-12-27T02:23:33.542Z,100051.09
2022-12-27T02:26:19.280Z,100055.34
2022-12-27T02:29:07.251Z,100067.34
2022-12-27T02:31:48.322Z,100061.72
2022-12-27T02:34:26.163Z,100056.59
2022-12-27T02:36:56.980Z,100065.25
2022-12-27T02:39:25.012Z,100067.03
2022-12-27T02:42:12.107Z,100072.50
2022-12-27T02:44:57.448Z,100068.75
2022-12-27T02:47:43.225Z,100074.19
2022-12-27T02:50:31.242Z,100082.22
2022-12-27T02:53:12.089Z,100084.88
2022-12-27T02:56:18.796Z,100084.25
2022-12-27T02:59:11.261Z,100081.69
2022-12-27T03:02:14.742Z,100079.28
2022-12-27T03:05:17.572Z,100080.28
2022-12-27T03:08:07.913Z,100087.59
2022-12-27T03:10:52.657Z,100084.94
2022-12-27T03:13:48.419Z,100088.69
2022-12-27T03:16:20.733Z,100094.16
2022-12-27T03:18:52.901Z,100096.81
2022-12-27T03:21:48.373Z,100092.88
2022-12-27T03:24:37.165Z,100106.28
2022-12-27T03:27:18.403Z,100095.53
2022-12-27T03:30:10.186Z,100099.53
2022-12-27T03:33:02.126Z,100101.09
2022-12-27T03:35:34.558Z,100108.25
2022-12-27T03:38:05.710Z,100115.84
2022-12-27T03:40:41.448Z,100107.88
2022-12-27T03:43:16.197Z,100103.75
2022-12-27T03:46:10.640Z,100103.50
2022-12-27T03:48:53.989Z,100099.44
2022-12-27T03:51:24.403Z,100102.03
2022-12-27T03:53:55.274Z,100101.72
2022-12-27T03:56:21.959Z,100099.94
2022-12-27T03:58:48.502Z,100110.41
2022-12-27T04:01:15.294Z,100112.25
2022-12-27T04:03:42.137Z,100112.41
2022-12-27T04:06:08.938Z,100112.13
2022-12-27T04:08:54.004Z,100115.56
2022-12-27T04:11:38.847Z,100129.13
2022-12-27T04:14:24.030Z,100131.84
2022-12-27T04:17:09.190Z,100125.31
2022-12-27T04:19:54.043Z,100119.38
2022-12-27T04:22:39.172Z,100128.91
2022-12-27T04:25:24.325Z,100125.19
2022-12-27T04:28:09.210Z,100123.31
2022-12-27T04:30:54.120Z,100119.03
2022-12-27T04:33:41.026Z,100124.81
2022-12-27T04:36:08.068Z,100114.56
2022-12-27T04:38:34.608Z,100120.03
2022-12-27T04:41:19.887Z,100116.44
2022-12-27T04:44:05.017Z,100113.00
2022-12-27T04:46:50.151Z,100108.63
2022-12-27T04:49:44.153Z,100105.53
2022-12-27T04:52:35.390Z,100116.75
2022-12-27T04:55:07.901Z,100116.84
2022-12-27T04:57:34.383Z,100118.84
2022-12-27T05:00:19.635Z,100114.13
2022-12-27T05:02:46.300Z,100122.91
2022-12-27T05:05:12.994Z,100115.84
2022-12-27T05:07:58.383Z,100121.72
2022-12-27T05:10:43.571Z,100129.09
2022-12-27T05:13:30.690Z,100126.13
2022-12-27T05:15:57.338Z,100117.41
2022-12-27T05:18:24.737Z,100120.81
2022-12-27T05:20:51.192Z,100120.53
2022-12-27T05:23:36.583Z,100121.16
2022-12-27T05:26:04.543Z,100124.50
2022-12-27T05:28:31.010Z,100123.19
2022-12-27T05:31:02.781Z,100120.94
2022-12-27T05:33:31.638Z,100123.34
2022-12-27T05:35:59.746Z,100125.78
2022-12-27T05:38:26.635Z,100127.94
2022-12-27T05:40:58.439Z,100133.66
2022-12-27T05:43:25.143Z,100132.81
2022-12-27T05:45:51.806Z,100139.44
2022-12-27T05:48:18.385Z,100138.63
2022-12-27T05:50:44.987Z,100143.94
2022-12-27T05:53:11.588Z,100146.44
2022-12-27T05:55:38.257Z,100148.53
2022-12-27T05:58:04.817Z,100147.16
2022-12-27T06:00:31.491Z,100152.44
2022-12-27T06:02:58.058Z,100153.06
2022-12-27T06:05:24.631Z,100155.03
2022-12-27T06:07:51.055Z,100154.03
2022-12-27T06:10:17.479Z,100153.31
2022-12-27T06:12:43.867Z,100162.28
2022-12-27T06:15:11.797Z,100160.03
2022-12-27T06:17:38.221Z,100162.84
2022-12-27T06:20:04.961Z,100164.16
2022-12-27T06:22:31.341Z,100165.63
2022-12-27T06:24:57.713Z,100174.06
2022-12-27T06:27:24.101Z,100166.53
2022-12-27T06:29:50.521Z,100177.47
2022-12-27T06:32:17.700Z,100167.22
2022-12-27T06:34:44.890Z,100172.56
2022-12-27T06:37:12.213Z,100176.81
2022-12-27T06:39:38.616Z,100179.47
2022-12-27T06:42:05.033Z,100182.53
2022-12-27T06:44:31.433Z,100180.97
2022-12-27T06:46:57.868Z,100190.66
2022-12-27T06:49:25.675Z,100200.25
2022-12-27T06:51:59.180Z,100195.38
2022-12-27T06:54:26.151Z,100199.97
2022-12-27T06:56:52.609Z,100213.69
2022-12-27T06:59:18.981Z,100205.28
2022-12-27T07:01:45.492Z,100201.38
2022-12-27T07:04:11.919Z,100206.63
2022-12-27T07:06:38.370Z,100217.88
2022-12-27T07:09:05.810Z,100211.13
2022-12-27T07:11:34.538Z,100211.50
2022-12-27T07:14:01.685Z,100215.97
2022-12-27T07:16:29.896Z,100220.16
2022-12-27T07:18:58.281Z,100209.97
2022-12-27T07:21:27.008Z,100214.50
2022-12-27T07:23:53.721Z,100215.06
2022-12-27T07:26:23.239Z,100222.94
2022-12-27T07:28:52.634Z,100233.09
2022-12-27T07:31:23.076Z,100229.81
2022-12-27T07:33:50.195Z,100227.38
2022-12-27T07:36:21.992Z,100229.25
2022-12-27T07:38:48.966Z,100231.81
2022-12-27T07:41:16.174Z,100233.78
2022-12-27T07:43:44.186Z,100235.16
2022-12-27T07:46:19.525Z,100237.75
2022-12-27T07:48:47.264Z,100243.66
2022-12-27T07:51:15.317Z,100250.97
2022-12-27T07:53:41.802Z,100262.28
2022-12-27T07:56:13.635Z,100259.56
2022-12-27T07:58:42.428Z,100263.00
2022-12-27T08:01:10.236Z,100256.53
2022-12-27T08:03:36.992Z,100261.97
2022-12-27T08:06:04.456Z,100244.75
2022-12-27T08:08:40.684Z,100252.41
2022-12-27T08:11:07.139Z,100250.63
2022-12-27T08:13:34.293Z,100249.31
2022-12-27T08:16:01.275Z,100249.09
2022-12-27T08:18:28.313Z,100251.81
2022-12-27T08:20:55.223Z,100255.56
2022-12-27T08:23:21.658Z,100254.78
2022-12-27T08:25:49.050Z,100262.56
2022-12-27T08:28:17.615Z,100260.22
2022-12-27T08:30:45.614Z,100259.78
2022-12-27T08:33:13.202Z,100269.81
2022-12-27T08:35:53.732Z,100265.84
2022-12-27T08:38:20.998Z,100268.44
2022-12-27T08:40:47.396Z,100279.88
2022-12-27T08:43:14.623Z,100271.59
2022-12-27T08:45:41.127Z,100274.44
2022-12-27T08:48:08.119Z,100271.50
2022-12-27T08:50:34.905Z,100267.59
2022-12-27T08:53:02.760Z,100268.00
2022-12-27T08:55:29.704Z,100275.34
2022-12-27T08:58:01.231Z,100274.94
2022-12-27T09:00:28.610Z,100279.88
2022-12-27T09:02:55.348Z,100280.09
2022-12-27T09:05:23.256Z,100284.16
2022-12-27T09:07:50.122Z,100286.38
2022-12-27T09:10:17.053Z,100286.53
2022-12-27T09:12:43.501Z,100286.50
2022-12-27T09:15:10.261Z,100297.19
2022-12-27T09:17:36.670Z,100293.63
2022-12-27T09:20:04.020Z,100295.53
2022-12-27T09:22:30.438Z,100300.34
2022-12-27T09:24:56.991Z,100295.03
2022-12-27T09:27:23.428Z,100302.09
2022-12-27T09:29:49.776Z,100288.72
2022-12-27T09:32:16.445Z,100296.63
2022-12-27T09:34:42.871Z,100291.31
2022-12-27T09:37:09.603Z,100291.31
2022-12-27T09:39:36.207Z,100295.50
2022-12-27T09:42:48.554Z,100298.31
2022-12-27T09:45:35.422Z,100292.44
2022-12-27T09:48:07.276Z,100298.28
2022-12-27T09:50:37.967Z,100303.25
2022-12-27T09:53:22.055Z,100300.28
2022-12-27T09:55:51.255Z,100305.25
2022-12-27T09:58:29.239Z,100302.50
2022-12-27T10:00:55.665Z,100298.06
2022-12-27T10:03:25.747Z,100302.03
2022-12-27T10:06:06.689Z,100292.22
2022-12-27T10:08:52.927Z,100291.88
2022-12-27T10:11:36.669Z,100294.38
2022-12-27T10:14:16.414Z,100297.63
2022-12-27T10:16:55.406Z,100290.59
2022-12-27T10:19:43.068Z,100292.22
2022-12-27T10:22:18.607Z,100288.09
2022-12-27T10:24:50.901Z,100283.56
2022-12-27T10:27:23.121Z,100277.19
2022-12-27T10:29:53.035Z,100269.53
2022-12-27T10:32:19.641Z,100269.56
2022-12-27T10:34:54.647Z,100274.91
2022-12-27T10:37:21.035Z,100267.06
2022-12-27T10:39:47.456Z,100254.09
2022-12-27T10:42:19.848Z,100255.00
2022-12-27T10:44:46.243Z,100258.00
2022-12-27T10:47:13.127Z,100254.50
2022-12-27T10:49:42.286Z,100253.25
2022-12-27T10:52:16.507Z,100248.78
2022-12-27T10:54:56.893Z,100249.66
2022-12-27T10:57:33.930Z,100245.75
2022-12-27T11:00:22.134Z,100247.34
2022-12-27T11:02:54.175Z,100254.56
2022-12-27T11:05:24.360Z,100254.31
2022-12-27T11:07:51.152Z,100266.22
2022-12-27T11:10:20.919Z,100269.78
2022-12-27T11:12:59.497Z,100263.09
2022-12-27T11:15:27.572Z,100261.75
2022-12-27T11:17:56.393Z,100270.69
2022-12-27T11:20:27.630Z,100282.38
2022-12-27T11:22:58.671Z,100282.97
2022-12-27T11:25:28.136Z,100282.34
2022-12-27T11:28:00.467Z,100272.28
2022-12-27T11:30:34.014Z,100268.09
2022-12-27T11:33:24.595Z,100262.78
2022-12-27T11:39:00.636Z,100270.00
2022-12-27T11:41:33.860Z,100261.25
2022-12-27T11:44:20.512Z,100262.59
2022-12-27T11:49:50.161Z,100256.84
2022-12-27T11:52:58.436Z,100261.84
2022-12-27T11:55:54.203Z,100257.38
2022-12-27T11:58:57.505Z,100262.16
2022-12-27T12:02:02.762Z,100263.13
2022-12-27T12:04:47.737Z,100258.84
2022-12-27T12:07:36.461Z,100256.94
2022-12-27T12:10:20.154Z,100256.75
2022-12-27T12:12:52.309Z,100254.56
2022-12-27T12:15:52.861Z,100266.84
2022-12-27T12:18:27.760Z,100260.13
2022-12-27T12:21:08.428Z,100263.63
2022-12-27T12:23:43.896Z,100260.78
2022-12-27T12:26:20.440Z,100264.56
2022-12-27T12:29:02.405Z,100245.69
2022-12-27T12:31:55.150Z,100243.63
2022-12-27T12:34:33.698Z,100245.50
2022-12-27T12:37:22.401Z,100243.81
2022-12-27T12:40:03.989Z,100233.25
2022-12-27T12:42:49.123Z,100229.31
2022-12-27T12:46:03.409Z,100232.44
2022-12-27T12:48:48.020Z,100229.59
2022-12-27T12:51:27.218Z,100218.56
2022-12-27T12:54:23.041Z,100221.50
2022-12-27T12:56:58.535Z,100222.09
2022-12-27T12:59:34.232Z,100218.41
2022-12-27T13:02:46.137Z,100218.66
2022-12-27T13:05:26.179Z,100216.72
2022-12-27T13:08:14.195Z,100210.34
2022-12-27T13:11:11.523Z,100198.31
2022-12-27T13:14:10.334Z,100194.94
2022-12-27T13:16:39.701Z,100208.19
2022-12-27T13:19:27.956Z,100203.75
2022-12-27T13:22:03.525Z,100189.78
2022-12-27T13:24:51.780Z,100183.06
2022-12-27T13:27:32.251Z,100191.63
2022-12-27T13:30:15.085Z,100175.31
2022-12-27T13:32:55.987Z,100170.38
2022-12-27T13:35:25.081Z,100173.69
2022-12-27T13:38:17.554Z,100171.03
2022-12-27T13:40:51.911Z,100166.88
2022-12-27T13:43:37.610Z,100166.19
2022-12-27T13:46:43.380Z,100158.16
2022-12-27T13:49:18.954Z,100167.47
2022-12-27T13:51:51.138Z,100164.34
2022-12-27T13:54:35.986Z,100156.75
2022-12-27T13:57:36.879Z,100167.13
2022-12-27T14:00:09.661Z,100156.56
2022-12-27T14:02:49.299Z,100159.03
2022-12-27T14:06:08.059Z,100153.47
2022-12-27T14:08:54.634Z,100164.16
2022-12-27T14:11:41.077Z,100160.50
2022-12-27T14:14:12.600Z,100154.84
2022-12-27T14:16:47.305Z,100160.28
2022-12-27T14:19:23.157Z,100164.88
2022-12-27T14:22:15.759Z,100164.72
2022-12-27T14:25:02.616Z,100166.09
2022-12-27T14:28:24.079Z,100163.63
2022-12-27T14:30:53.485Z,100162.91
2022-12-27T14:33:37.953Z,100163.53
2022-12-27T14:36:19.283Z,100166.81
2022-12-27T14:39:24.676Z,100163.31
2022-12-27T14:42:18.889Z,100165.72
2022-12-27T14:45:22.548Z,100168.22
2022-12-27T14:48:26.161Z,100173.19
2022-12-27T14:51:59.405Z,100174.31
2022-12-27T14:54:50.830Z,100173.38
2022-12-27T14:57:45.995Z,100170.31
2022-12-27T15:00:20.660Z,100173.09
2022-12-27T15:03:18.988Z,100162.59
2022-12-27T15:06:00.675Z,100160.28
2022-12-27T15:08:42.106Z,100151.72
2022-12-27T15:11:33.485Z,100158.09
2022-12-27T15:14:33.415Z,100157.25
2022-12-27T15:17:17.789Z,100159.59
2022-12-27T15:20:14.927Z,100157.69
2022-12-27T15:23:19.826Z,100160.94
2022-12-27T15:25:46.173Z,100164.13
2022-12-27T15:28:50.132Z,100170.31
2022-12-27T15:31:38.320Z,100168.78
2022-12-27T15:34:10.870Z,100164.50
2022-12-27T15:36:43.280Z,100177.41
2022-12-27T15:39:34.486Z,100173.00
2022-12-27T15:42:16.064Z,100172.53
2022-12-27T15:45:04.380Z,100172.88
2022-12-27T15:47:48.922Z,100181.91
2022-12-27T15:50:35.795Z,100177.72
2022-12-27T15:53:32.938Z,100180.31
2022-12-27T15:56:34.816Z,100174.78
2022-12-27T15:59:37.275Z,100174.31
2022-12-27T16:02:29.552Z,100169.09
2022-12-27T16:04:58.965Z,100168.31
2022-12-27T16:07:39.757Z,100166.75
2022-12-27T16:10:35.116Z,100171.56
2022-12-27T16:13:21.826Z,100164.88
2022-12-27T16:15:48.361Z,100154.88
2022-12-27T16:18:17.805Z,100151.31
2022-12-27T16:21:01.360Z,100147.72
2022-12-27T16:23:31.983Z,100147.66
2022-12-27T16:26:04.436Z,100146.88
2022-12-27T16:28:33.630Z,100138.16
2022-12-27T16:31:11.545Z,100134.78
2022-12-27T16:33:40.888Z,100145.06
2022-12-27T16:36:20.949Z,100138.31
2022-12-27T16:39:11.758Z,100139.16
2022-12-27T16:41:56.675Z,100136.59
2022-12-27T16:44:25.811Z,100148.25
2022-12-27T16:47:23.045Z,100150.22
2022-12-27T16:50:23.183Z,100143.53
2022-12-27T16:53:23.972Z,100155.72
2022-12-27T16:56:12.208Z,100142.75
2022-12-27T16:58:39.256Z,100140.34
2022-12-27T17:01:26.802Z,100140.69
2022-12-27T17:03:55.175Z,100137.34
2022-12-27T17:06:36.782Z,100132.72
2022-12-27T17:09:06.192Z,100133.88
2022-12-27T17:11:34.937Z,100136.75
2022-12-27T17:14:25.195Z,100140.41
2022-12-27T17:16:56.363Z,100137.75
2022-12-27T17:19:43.691Z,100139.34
2022-12-27T17:22:16.579Z,100139.41
2022-12-27T17:24:45.341Z,100146.38
2022-12-27T17:27:34.636Z,100148.41
2022-12-27T17:30:19.755Z,100143.88
2022-12-27T17:33:01.397Z,100143.13
2022-12-27T17:36:04.394Z,100141.88
2022-12-27T17:39:06.394Z,100138.47
2022-12-27T17:42:02.665Z,100138.78
2022-12-27T17:44:41.983Z,100135.97
2022-12-27T17:47:29.843Z,100135.50
2022-12-27T17:50:02.493Z,100131.16
2022-12-27T17:52:47.670Z,100133.19
2022-12-27T17:55:37.499Z,100123.72
2022-12-27T17:58:08.064Z,100131.59
2022-12-27T18:00:40.848Z,100125.81
2022-12-27T18:03:11.817Z,100120.22
2022-12-27T18:05:43.094Z,100123.66
2022-12-27T18:08:25.822Z,100115.84
2022-12-27T18:10:52.347Z,100115.06
2022-12-27T18:13:22.732Z,100111.66
2022-12-27T18:15:50.833Z,100113.22
2022-12-27T18:18:26.646Z,100121.03
2022-12-27T18:21:01.771Z,100114.06
2022-12-27T18:23:28.060Z,100110.97
2022-12-27T18:25:57.419Z,100107.53
2022-12-27T18:28:33.571Z,100108.22
2022-12-27T18:31:07.292Z,100104.78
2022-12-27T18:33:35.076Z,100105.25
2022-12-27T18:36:04.149Z,100103.84
2022-12-27T18:38:54.974Z,100109.00
2022-12-27T18:41:23.652Z,100107.84
2022-12-27T18:43:56.947Z,100099.03
2022-12-27T18:46:36.514Z,100097.22
2022-12-27T18:49:04.108Z,100087.63
2022-12-27T18:51:32.877Z,100085.28
2022-12-27T18:54:00.250Z,100081.72
2022-12-27T18:56:32.220Z,100075.59
2022-12-27T18:59:20.753Z,100066.31
2022-12-27T19:01:47.849Z,100072.50
2022-12-27T19:04:14.442Z,100059.31
2022-12-27T19:06:43.457Z,100064.84
2022-12-27T19:09:18.329Z,100057.19
2022-12-27T19:12:07.098Z,100061.94
2022-12-27T19:14:42.946Z,100053.41
2022-12-27T19:17:18.422Z,100053.91
2022-12-27T19:19:59.663Z,100053.41
2022-12-27T19:22:55.127Z,100037.94
2022-12-27T19:25:26.020Z,100032.34
2022-12-27T19:28:02.895Z,100033.47
2022-12-27T19:30:43.110Z,100022.88
2022-12-27T19:33:32.282Z,100022.56
2022-12-27T19:36:00.362Z,100027.88
2022-12-27T19:38:28.846Z,100028.16
2022-12-27T19:41:02.994Z,100022.50
2022-12-27T19:43:36.848Z,100021.78
2022-12-27T19:46:03.322Z,100021.25
2022-12-27T19:48:29.728Z,100018.59
2022-12-27T19:50:56.317Z,100008.16
2022-12-27T19:53:30.770Z,99998.72
2022-12-27T19:55:58.368Z,100006.03
2022-12-27T19:58:27.085Z,100010.72
2022-12-27T20:00:53.975Z,100005.50
2022-12-27T20:03:20.458Z,99988.75
2022-12-27T20:06:11.632Z,99989.81
2022-12-27T20:09:00.020Z,99997.19
2022-12-27T20:11:27.859Z,99995.78
2022-12-27T20:13:54.441Z,99986.28
2022-12-27T20:16:20.873Z,99984.63
2022-12-27T20:18:47.299Z,99977.94
2022-12-27T20:21:18.975Z,99978.56
2022-12-27T20:23:46.313Z,99982.66
2022-12-27T20:26:16.432Z,99984.81
2022-12-27T20:28:42.850Z,99980.31
2022-12-27T20:31:12.732Z,99990.28
2022-12-27T20:33:39.182Z,100000.63
2022-12-27T20:36:06.444Z,99995.25
2022-12-27T20:38:33.067Z,99992.84
2022-12-27T20:41:09.837Z,99991.13
2022-12-27T20:43:36.564Z,99987.38
2022-12-27T20:46:07.632Z,99991.56
2022-12-27T20:48:37.183Z,99981.81
2022-12-27T20:51:09.016Z,99981.78
2022-12-27T20:53:35.413Z,99969.94
2022-12-27T20:56:03.126Z,99975.47
2022-12-27T20:58:31.181Z,99964.63
2022-12-27T21:00:57.974Z,99962.88
2022-12-27T21:03:24.444Z,99952.88
2022-12-27T21:05:50.963Z,99956.06
2022-12-27T21:08:17.605Z,99961.06
2022-12-27T21:10:44.012Z,99942.75
2022-12-27T21:13:10.418Z,99948.53
2022-12-27T21:15:42.239Z,99940.34
2022-12-27T21:18:09.033Z,99945.56
2022-12-27T21:20:35.418Z,99934.97
2022-12-27T21:23:01.890Z,99936.66
2022-12-27T21:25:28.476Z,99929.81
2022-12-27T21:27:54.824Z,99932.94
2022-12-27T21:30:21.419Z,99927.16
2022-12-27T21:32:47.993Z,99923.75
2022-12-27T21:35:14.608Z,99914.78
2022-12-27T21:37:41.131Z,99921.09
2022-12-27T21:40:07.990Z,99913.28
2022-12-27T21:42:34.389Z,99906.44
2022-12-27T21:45:00.782Z,99911.56
2022-12-27T21:47:29.130Z,99918.28
2022-12-27T21:49:55.928Z,99920.13
2022-12-27T21:52:22.317Z,99918.28
2022-12-27T21:54:48.701Z,99920.13
2022-12-27T21:57:15.036Z,99920.44
2022-12-27T21:59:41.469Z,99919.19
2022-12-27T22:02:09.017Z,99910.94
2022-12-27T22:04:35.466Z,99901.34
2022-12-27T22:07:01.921Z,99892.03
2022-12-27T22:09:28.283Z,99893.53
2022-12-27T22:11:54.621Z,99889.19
2022-12-27T22:14:25.425Z,99884.59
2022-12-27T22:16:52.553Z,99880.66
2022-12-27T22:19:18.998Z,99869.75
2022-12-27T22:21:45.368Z,99873.41
2022-12-27T22:24:16.114Z,99866.66
2022-12-27T22:26:42.844Z,99868.72
2022-12-27T22:29:09.258Z,99855.75
2022-12-27T22:31:37.486Z,99850.22
2022-12-27T22:34:04.930Z,99844.53
2022-12-27T22:36:31.434Z,99845.81
2022-12-27T22:38:59.596Z,99842.28
2022-12-27T22:41:36.942Z,99837.25
2022-12-27T22:44:10.183Z,99841.59
2022-12-27T22:47:06.787Z,99847.88
2022-12-27T22:49:23.206Z,99824.16
2022-12-27T22:51:49.600Z,99837.09
2022-12-27T22:54:15.961Z,99827.88
2022-12-27T22:56:42.901Z,99834.00
2022-12-27T22:59:11.508Z,99834.69
2022-12-27T23:01:39.392Z,99828.47
2022-12-27T23:04:07.041Z,99834.69
2022-12-27T23:06:35.096Z,99828.63
2022-12-27T23:09:01.729Z,99825.13
2022-12-27T23:11:31.862Z,99814.31
2022-12-27T23:14:03.807Z,99814.25
2022-12-27T23:16:44.542Z,99804.22
2022-12-27T23:19:12.545Z,99803.22
2022-12-27T23:21:38.963Z,99783.09
2022-12-27T23:24:06.581Z,99777.78
2022-12-27T23:26:33.047Z,99775.41
2022-12-27T23:28:59.628Z,99767.09
2022-12-27T23:31:26.617Z,99767.25
2022-12-27T23:33:53.442Z,99763.94
2022-12-27T23:36:20.697Z,99764.19
2022-12-27T23:38:47.717Z,99751.34
2022-12-27T23:41:25.068Z,99733.38
2022-12-27T23:43:54.883Z,99723.25
2022-12-27T23:46:28.597Z,99730.53
2022-12-27T23:48:56.574Z,99720.84
2022-12-27T23:51:23.629Z,99726.75
2022-12-27T23:53:50.188Z,99725.13
2022-12-27T23:56:19.556Z,99716.22
2022-12-27T23:58:46.978Z,99715.38
